Time;durP1;ratioP1;P1;durP2;ratioP2;P2;SDS_P1;SDS_P2;PMS_P1;PMS_P2;Temp;Humidity;BMP_temperature;BMP_pressure;BME280_temperature;BME280_humidity;BME280_pressure;Samples;Min_cycle;Max_cycle;Signal;HPM_P1;HPM_P2
2022/05/08 00:02:26;;;;;;;;;;;21.60;53.20;;;;;;5095380;28;19930;-51
2022/05/08 00:04:53;;;;;;;;;;;21.60;53.20;;;;;;5079678;28;19925;-51
2022/05/08 00:07:21;;;;;;;;;;;21.60;53.20;;;;;;5074914;28;19924;-48
2022/05/08 00:09:48;;;;;;;;;;;21.60;53.20;;;;;;5074931;28;19928;-47
2022/05/08 00:12:16;;;;;;;;;;;21.60;53.20;;;;;;5075207;28;19924;-48
2022/05/08 00:14:44;;;;;;;;;;;21.60;53.20;;;;;;5074494;28;19931;-47
2022/05/08 00:17:13;;;;;;;;;;;21.60;53.20;;;;;;5074511;28;19928;-47
2022/05/08 00:19:41;;;;;;;;;;;21.60;53.20;;;;;;5074943;28;19928;-48
2022/05/08 00:22:08;;;;;;;;;;;21.60;53.20;;;;;;5074600;28;19924;-49
2022/05/08 00:24:55;;;;;;;;;;;21.60;53.20;;;;;;5074476;28;19924;-49
2022/05/08 00:27:22;;;;;;;;;;;21.60;53.20;;;;;;5073962;28;20395;-48
2022/05/08 00:29:49;;;;;;;;;;;21.60;53.20;;;;;;5054656;28;19932;-47
2022/05/08 00:32:18;;;;;;;;;;;21.60;53.20;;;;;;5054964;28;19925;-49
2022/05/08 00:34:45;;;;;;;;;;;21.60;53.20;;;;;;5054016;28;19932;-50
2022/05/08 00:37:12;;;;;;;;;;;21.60;53.20;;;;;;5054334;28;19951;-48
2022/05/08 00:39:39;;;;;;;;;;;21.60;53.20;;;;;;5061570;28;19924;-47
2022/05/08 00:42:06;;;;;;;;;;;21.60;53.20;;;;;;5074390;28;19931;-52
2022/05/08 00:44:33;;;;;;;;;;;21.60;53.20;;;;;;5074645;28;20335;-47
2022/05/08 00:47:00;;;;;;;;;;;21.60;53.20;;;;;;5074614;28;19925;-47
2022/05/08 00:49:27;;;;;;;;;;;21.60;53.30;;;;;;5073890;28;19931;-52
2022/05/08 00:51:54;;;;;;;;;;;21.60;53.20;;;;;;5074259;28;19924;-48
2022/05/08 00:54:21;;;;;;;;;;;21.60;53.20;;;;;;5074088;28;19932;-48
2022/05/08 00:56:48;;;;;;;;;;;21.60;53.20;;;;;;5094128;28;20401;-48
2022/05/08 00:59:15;;;;;;;;;;;21.60;53.20;;;;;;5094159;28;19928;-49
2022/05/08 01:01:42;;;;;;;;;;;21.60;53.20;;;;;;5075083;28;19925;-48
2022/05/08 01:04:09;;;;;;;;;;;21.60;53.20;;;;;;5074236;28;19931;-47
2022/05/08 01:06:36;;;;;;;;;;;21.60;53.20;;;;;;5073584;28;19924;-47
2022/05/08 01:09:03;;;;;;;;;;;21.60;53.20;;;;;;5069574;28;19925;-47
2022/05/08 01:11:30;;;;;;;;;;;21.60;53.20;;;;;;5053941;28;20594;-48
2022/05/08 01:13:57;;;;;;;;;;;21.60;53.20;;;;;;5053701;28;19925;-48
2022/05/08 01:16:24;;;;;;;;;;;21.60;53.20;;;;;;5054623;28;19936;-48
2022/05/08 01:18:51;;;;;;;;;;;21.60;53.20;;;;;;5072837;28;19936;-49
2022/05/08 01:21:21;;;;;;;;;;;21.60;53.20;;;;;;5053373;28;19982;-50
2022/05/08 01:23:48;;;;;;;;;;;21.60;53.20;;;;;;5059145;28;19924;-47
2022/05/08 01:26:22;;;;;;;;;;;21.60;53.20;;;;;;5093820;28;20001;-49
2022/05/08 01:28:49;;;;;;;;;;;21.60;53.20;;;;;;5093495;28;19971;-50
2022/05/08 01:31:16;;;;;;;;;;;21.60;53.20;;;;;;5093034;28;20296;-48
2022/05/08 01:33:43;;;;;;;;;;;21.60;53.20;;;;;;5093897;28;19989;-49
2022/05/08 01:36:10;;;;;;;;;;;21.60;53.20;;;;;;5093852;28;20333;-50
2022/05/08 01:38:37;;;;;;;;;;;21.60;53.20;;;;;;5092873;28;19924;-49
2022/05/08 01:41:04;;;;;;;;;;;21.60;53.20;;;;;;5073394;28;20261;-48
2022/05/08 01:43:34;;;;;;;;;;;21.60;53.20;;;;;;5072865;28;20434;-48
2022/05/08 01:46:02;;;;;;;;;;;21.60;53.20;;;;;;5073033;28;20292;-49
2022/05/08 01:48:30;;;;;;;;;;;21.60;53.20;;;;;;5072554;28;20281;-49
2022/05/08 01:50:58;;;;;;;;;;;21.60;53.20;;;;;;5073254;28;19925;-48
2022/05/08 01:53:31;;;;;;;;;;;21.60;53.20;;;;;;5073022;28;19994;-54
2022/05/08 01:55:59;;;;;;;;;;;21.60;53.20;;;;;;5083864;28;19931;-54
2022/05/08 01:58:27;;;;;;;;;;;21.60;53.20;;;;;;5072889;28;20307;-54
2022/05/08 02:00:55;;;;;;;;;;;21.60;53.20;;;;;;5072613;28;19932;-54
2022/05/08 02:03:23;;;;;;;;;;;21.60;53.20;;;;;;5072801;28;19928;-53
2022/05/08 02:05:51;;;;;;;;;;;21.60;53.20;;;;;;5073121;28;19924;-55
2022/05/08 02:08:18;;;;;;;;;;;21.60;53.20;;;;;;5072594;28;19925;-54
2022/05/08 02:10:45;;;;;;;;;;;21.60;53.20;;;;;;5072498;28;19931;-55
2022/05/08 02:13:12;;;;;;;;;;;21.60;53.20;;;;;;5072662;28;19931;-56
2022/05/08 02:15:39;;;;;;;;;;;21.60;53.20;;;;;;5072403;28;19931;-54
2022/05/08 02:18:07;;;;;;;;;;;21.60;53.20;;;;;;5073044;28;19928;-52
2022/05/08 02:20:35;;;;;;;;;;;21.60;53.20;;;;;;5077700;28;19924;-54
2022/05/08 02:23:02;;;;;;;;;;;21.60;53.20;;;;;;5092753;28;19975;-55
2022/05/08 02:25:30;;;;;;;;;;;21.60;53.20;;;;;;5092533;28;19924;-54
2022/05/08 02:27:57;;;;;;;;;;;21.60;53.80;;;;;;5092521;28;19969;-53
2022/05/08 02:30:25;;;;;;;;;;;21.60;53.20;;;;;;5092662;28;19981;-50
2022/05/08 02:32:53;;;;;;;;;;;21.60;53.20;;;;;;5092867;28;20410;-48
2022/05/08 02:35:21;;;;;;;;;;;21.60;53.20;;;;;;5092852;28;19931;-48
2022/05/08 02:37:50;;;;;;;;;;;21.60;53.20;;;;;;5092499;28;19931;-54
2022/05/08 02:40:18;;;;;;;;;;;21.60;53.20;;;;;;5079667;28;19925;-51
2022/05/08 02:42:45;;;;;;;;;;;21.60;53.20;;;;;;5067752;28;19924;-49
2022/05/08 02:45:12;;;;;;;;;;;21.60;53.20;;;;;;5052239;28;19929;-48
2022/05/08 02:47:39;;;;;;;;;;;21.60;53.20;;;;;;5089677;28;19924;-48
2022/05/08 02:50:06;;;;;;;;;;;21.60;53.20;;;;;;5091964;28;20441;-55
2022/05/08 02:52:33;;;;;;;;;;;21.60;53.20;;;;;;5087136;28;19970;-52
2022/05/08 02:58:32;;;;;;;;;;;21.60;53.20;;;;;;5076790;28;19931;-53
2022/05/08 03:00:37;;;;;;;;;;;21.60;53.20;;;;;;5092456;28;19970;-50
2022/05/08 03:03:05;;;;;;;;;;;21.60;53.20;;;;;;5092510;28;19935;-49
2022/05/08 03:05:33;;;;;;;;;;;21.60;53.20;;;;;;5093345;28;19925;-48
2022/05/08 03:08:00;;;;;;;;;;;21.60;53.20;;;;;;5096438;28;19966;-48
2022/05/08 03:10:27;;;;;;;;;;;21.60;53.20;;;;;;5073246;28;19924;-48
2022/05/08 03:12:54;;;;;;;;;;;21.60;53.20;;;;;;5076360;28;19924;-52
2022/05/08 03:15:22;;;;;;;;;;;21.60;53.20;;;;;;5076497;28;20299;-53
2022/05/08 03:17:49;;;;;;;;;;;21.60;53.20;;;;;;5092001;28;19931;-53
2022/05/08 03:20:16;;;;;;;;;;;21.60;53.30;;;;;;5096028;28;19967;-48
2022/05/08 03:22:43;;;;;;;;;;;21.60;53.20;;;;;;5095399;28;19924;-50
2022/05/08 03:25:10;;;;;;;;;;;21.60;53.20;;;;;;5094765;28;19924;-48
2022/05/08 03:27:37;;;;;;;;;;;21.60;53.20;;;;;;5096304;28;19924;-49
2022/05/08 03:30:04;;;;;;;;;;;21.60;53.20;;;;;;5096390;28;20342;-49
2022/05/08 03:32:31;;;;;;;;;;;21.60;53.20;;;;;;5094827;28;19935;-48
2022/05/08 03:34:58;;;;;;;;;;;21.60;53.20;;;;;;5096154;28;19931;-48
2022/05/08 03:37:25;;;;;;;;;;;21.60;53.20;;;;;;5095859;28;20444;-48
2022/05/08 03:39:52;;;;;;;;;;;21.60;53.20;;;;;;5083925;28;19985;-49
2022/05/08 03:42:19;;;;;;;;;;;21.60;53.20;;;;;;5075764;28;19970;-48
2022/05/08 03:44:46;;;;;;;;;;;21.60;53.20;;;;;;5075285;28;20441;-50
2022/05/08 03:47:13;;;;;;;;;;;21.60;53.20;;;;;;5075448;28;19946;-48
2022/05/08 03:49:40;;;;;;;;;;;21.60;53.20;;;;;;5075412;28;19931;-50
2022/05/08 03:52:07;;;;;;;;;;;21.60;53.20;;;;;;5075797;28;19929;-50
2022/05/08 03:54:34;;;;;;;;;;;21.60;53.20;;;;;;5076032;28;19924;-48
2022/05/08 03:57:01;;;;;;;;;;;21.60;53.20;;;;;;5095442;28;19974;-48
2022/05/08 03:59:28;;;;;;;;;;;21.60;53.20;;;;;;5095326;28;19924;-48
2022/05/08 04:01:55;;;;;;;;;;;21.60;53.20;;;;;;5095258;28;20379;-48
2022/05/08 04:04:22;;;;;;;;;;;21.60;53.20;;;;;;5095538;28;19967;-50
2022/05/08 04:06:49;;;;;;;;;;;21.60;53.20;;;;;;5079757;28;19924;-49
2022/05/08 04:09:16;;;;;;;;;;;21.60;53.20;;;;;;5083088;28;19924;-49
2022/05/08 04:11:43;;;;;;;;;;;21.60;53.20;;;;;;5094783;28;20446;-51
2022/05/08 04:14:10;;;;;;;;;;;21.60;53.20;;;;;;5092788;28;20417;-48
2022/05/08 04:16:37;;;;;;;;;;;21.60;53.20;;;;;;5094871;28;19924;-49
2022/05/08 04:19:07;;;;;;;;;;;21.60;53.20;;;;;;5095315;28;20006;-49
2022/05/08 04:21:34;;;;;;;;;;;21.60;53.20;;;;;;5094794;28;19982;-53
2022/05/08 04:24:19;;;;;;;;;;;21.60;53.20;;;;;;5095183;28;20371;-50
2022/05/08 04:26:46;;;;;;;;;;;21.60;53.20;;;;;;5095069;28;19947;-50
2022/05/08 04:29:13;;;;;;;;;;;21.60;53.10;;;;;;5094851;28;19985;-49
2022/05/08 04:31:40;;;;;;;;;;;21.60;53.10;;;;;;5094985;28;19932;-51
2022/05/08 04:34:07;;;;;;;;;;;21.60;53.10;;;;;;5094890;28;20019;-47
2022/05/08 04:36:35;;;;;;;;;;;21.60;53.10;;;;;;5078652;28;19925;-48
2022/05/08 04:39:02;;;;;;;;;;;21.60;53.10;;;;;;5074443;28;19939;-50
2022/05/08 04:41:29;;;;;;;;;;;21.60;53.10;;;;;;5074757;28;20280;-49
2022/05/08 04:43:59;;;;;;;;;;;21.60;53.10;;;;;;5073986;28;19924;-49
2022/05/08 04:46:28;;;;;;;;;;;21.60;53.00;;;;;;5074143;28;19947;-51
2022/05/08 04:48:55;;;;;;;;;;;21.60;53.00;;;;;;5074077;28;20034;-49
2022/05/08 04:51:22;;;;;;;;;;;21.60;53.00;;;;;;5074152;28;19932;-51
2022/05/08 04:53:49;;;;;;;;;;;21.70;53.10;;;;;;5074312;28;19924;-50
2022/05/08 04:56:16;;;;;;;;;;;21.70;53.10;;;;;;5088721;28;20277;-50
2022/05/08 04:58:44;;;;;;;;;;;21.70;53.00;;;;;;5094150;28;20432;-49
2022/05/08 05:01:11;;;;;;;;;;;21.70;53.00;;;;;;5094181;28;19931;-49
2022/05/08 05:03:38;;;;;;;;;;;21.70;53.00;;;;;;5073849;28;19978;-50
2022/05/08 05:06:05;;;;;;;;;;;21.70;53.60;;;;;;5073449;28;19939;-47
2022/05/08 05:08:32;;;;;;;;;;;21.70;52.90;;;;;;5071421;28;19935;-48
2022/05/08 05:10:59;;;;;;;;;;;21.70;52.90;;;;;;5093554;28;19974;-54
2022/05/08 05:13:26;;;;;;;;;;;21.70;52.90;;;;;;5094291;28;19924;-55
2022/05/08 05:15:53;;;;;;;;;;;21.70;52.90;;;;;;5093903;28;19924;-48
2022/05/08 05:18:20;;;;;;;;;;;21.70;52.80;;;;;;5093758;28;19923;-48
2022/05/08 05:20:47;;;;;;;;;;;21.80;52.90;;;;;;5093489;28;19924;-49
2022/05/08 05:23:14;;;;;;;;;;;21.70;52.80;;;;;;5093220;28;19969;-50
2022/05/08 05:25:41;;;;;;;;;;;21.80;52.90;;;;;;5093736;28;19928;-52
2022/05/08 05:28:08;;;;;;;;;;;21.70;52.80;;;;;;5092548;28;19924;-49
2022/05/08 05:30:35;;;;;;;;;;;21.80;52.90;;;;;;5093872;28;20300;-49
2022/05/08 05:33:03;;;;;;;;;;;21.70;52.80;;;;;;5076072;28;19925;-54
2022/05/08 05:35:30;;;;;;;;;;;21.80;52.80;;;;;;5071719;28;19928;-48
2022/05/08 05:37:57;;;;;;;;;;;21.80;52.80;;;;;;5073650;28;19924;-48
2022/05/08 05:40:24;;;;;;;;;;;21.80;52.80;;;;;;5072844;28;19928;-48
2022/05/08 05:42:52;;;;;;;;;;;21.80;52.80;;;;;;5072985;28;19974;-48
2022/05/08 05:45:19;;;;;;;;;;;21.80;52.80;;;;;;5079035;28;19930;-50
2022/05/08 05:47:55;;;;;;;;;;;21.80;52.80;;;;;;5092825;28;19924;-47
2022/05/08 05:50:22;;;;;;;;;;;21.80;52.80;;;;;;5092923;28;19928;-50
2022/05/08 05:52:50;;;;;;;;;;;21.80;52.80;;;;;;5093425;28;19924;-48
2022/05/08 05:55:17;;;;;;;;;;;21.80;52.80;;;;;;5091810;28;19925;-51
2022/05/08 05:57:45;;;;;;;;;;;21.80;52.80;;;;;;5091154;28;19927;-48
2022/05/08 06:00:13;;;;;;;;;;;21.80;52.80;;;;;;5072509;28;19929;-48
2022/05/08 06:02:40;;;;;;;;;;;21.80;52.80;;;;;;5072641;28;20380;-50
2022/05/08 06:05:08;;;;;;;;;;;21.80;52.80;;;;;;5072591;28;20381;-48
2022/05/08 06:07:35;;;;;;;;;;;21.80;52.80;;;;;;5092097;28;19924;-49
2022/05/08 06:10:06;;;;;;;;;;;21.80;52.80;;;;;;5077027;28;19935;-49
2022/05/08 06:12:33;;;;;;;;;;;21.80;52.80;;;;;;5072145;28;19924;-49
2022/05/08 06:15:00;;;;;;;;;;;21.80;52.80;;;;;;5073068;28;19924;-48
2022/05/08 06:17:27;;;;;;;;;;;21.80;52.80;;;;;;5072773;28;20296;-47
2022/05/08 06:19:55;;;;;;;;;;;21.80;52.80;;;;;;5072401;28;19932;-50
2022/05/08 06:22:22;;;;;;;;;;;21.80;52.80;;;;;;5072052;28;20400;-48
2022/05/08 06:24:49;;;;;;;;;;;21.80;52.80;;;;;;5072706;28;20380;-48
2022/05/08 06:27:17;;;;;;;;;;;21.80;52.80;;;;;;5072533;28;19924;-48
2022/05/08 06:29:43;;;;;;;;;;;21.80;52.80;;;;;;5072765;28;19929;-47
2022/05/08 06:32:10;;;;;;;;;;;21.80;52.80;;;;;;5071601;28;19932;-47
2022/05/08 06:34:37;;;;;;;;;;;21.80;52.80;;;;;;5072683;28;19928;-47
2022/05/08 06:37:04;;;;;;;;;;;21.80;52.80;;;;;;5072502;28;19924;-47
2022/05/08 06:39:33;;;;;;;;;;;21.80;52.70;;;;;;5073184;28;19947;-48
2022/05/08 06:42:01;;;;;;;;;;;21.80;52.70;;;;;;5076429;28;19925;-47
2022/05/08 06:44:27;;;;;;;;;;;21.80;52.70;;;;;;5076131;28;19924;-47
2022/05/08 06:46:55;;;;;;;;;;;21.80;52.60;;;;;;5076619;28;19932;-47
2022/05/08 06:49:21;;;;;;;;;;;21.90;52.80;;;;;;5075559;28;20380;-48
2022/05/08 06:51:49;;;;;;;;;;;21.80;52.60;;;;;;5076401;28;19925;-47
2022/05/08 06:54:16;;;;;;;;;;;21.90;52.60;;;;;;5075931;28;19925;-47
2022/05/08 06:56:44;;;;;;;;;;;21.90;52.60;;;;;;5092963;28;19951;-47
2022/05/08 07:01:56;;;;;;;;;;;21.90;52.50;;;;;;5084502;28;19986;-51
2022/05/08 07:04:23;;;;;;;;;;;21.90;52.50;;;;;;5096442;28;20300;-46
2022/05/08 07:06:51;;;;;;;;;;;22.00;52.50;;;;;;5096234;28;19924;-47
2022/05/08 07:09:18;;;;;;;;;;;22.00;52.40;;;;;;5078329;28;19932;-47
2022/05/08 07:11:47;;;;;;;;;;;22.00;52.40;;;;;;5055997;28;19925;-47
2022/05/08 07:14:15;;;;;;;;;;;22.00;52.30;;;;;;5055281;28;19935;-46
2022/05/08 07:16:42;;;;;;;;;;;22.10;52.30;;;;;;5055885;28;19935;-49
2022/05/08 07:19:10;;;;;;;;;;;22.10;52.20;;;;;;5056403;28;20335;-47
2022/05/08 07:21:37;;;;;;;;;;;22.10;52.20;;;;;;5055596;28;19932;-49
2022/05/08 07:24:04;;;;;;;;;;;22.10;52.10;;;;;;5060210;28;19954;-47
2022/05/08 07:26:32;;;;;;;;;;;22.20;52.10;;;;;;5075850;28;20292;-47
2022/05/08 07:28:59;;;;;;;;;;;22.20;52.00;;;;;;5074458;28;19931;-47
2022/05/08 07:31:26;;;;;;;;;;;22.20;51.90;;;;;;5075350;28;19924;-48
2022/05/08 07:36:12;;;;;;;;;;;22.20;51.90;;;;;;5075237;28;19924;-47
2022/05/08 07:36:40;;;;;;;;;;;22.20;51.80;;;;;;5075796;28;20127;-46
2022/05/08 07:39:07;;;;;;;;;;;22.30;51.70;;;;;;5075595;28;19932;-47
2022/05/08 07:41:34;;;;;;;;;;;22.40;52.30;;;;;;5075355;28;20291;-47
2022/05/08 07:44:01;;;;;;;;;;;22.40;51.70;;;;;;5075346;28;20407;-47
2022/05/08 07:46:28;;;;;;;;;;;22.40;51.60;;;;;;5075496;28;19929;-49
2022/05/08 07:48:55;;;;;;;;;;;22.40;51.60;;;;;;5074593;28;19928;-48
2022/05/08 07:51:22;;;;;;;;;;;22.40;51.50;;;;;;5062330;28;19928;-47
2022/05/08 07:53:49;;;;;;;;;;;22.40;51.50;;;;;;5055573;28;20297;-48
2022/05/08 07:56:16;;;;;;;;;;;22.40;51.50;;;;;;5086179;28;19924;-49
2022/05/08 07:58:43;;;;;;;;;;;22.40;51.50;;;;;;5085256;28;19924;-50
2022/05/08 08:01:10;;;;;;;;;;;22.40;51.50;;;;;;5095430;28;19935;-48
2022/05/08 08:03:38;;;;;;;;;;;22.40;51.40;;;;;;5095222;28;19960;-50
2022/05/08 08:06:05;;;;;;;;;;;22.40;51.40;;;;;;5095232;28;19924;-47
2022/05/08 08:08:35;;;;;;;;;;;22.40;51.40;;;;;;5092041;28;19931;-50
2022/05/08 08:11:04;;;;;;;;;;;22.50;51.50;;;;;;5074836;28;19982;-48
2022/05/08 08:13:32;;;;;;;;;;;22.50;51.40;;;;;;5075241;28;19934;-48
2022/05/08 08:16:00;;;;;;;;;;;22.50;51.30;;;;;;5074910;28;19925;-48
2022/05/08 08:18:28;;;;;;;;;;;22.50;51.30;;;;;;5074765;28;20353;-50
2022/05/08 08:20:55;;;;;;;;;;;22.60;51.30;;;;;;5074985;28;19924;-51
2022/05/08 08:23:23;;;;;;;;;;;22.60;51.20;;;;;;5074291;28;19928;-50
2022/05/08 08:25:51;;;;;;;;;;;22.60;51.20;;;;;;5074881;28;19947;-53
2022/05/08 08:28:18;;;;;;;;;;;22.70;51.20;;;;;;5074600;28;19954;-55
2022/05/08 08:30:45;;;;;;;;;;;22.60;51.00;;;;;;5074293;28;20015;-54
2022/05/08 08:33:12;;;;;;;;;;;22.70;51.10;;;;;;5074383;28;19929;-53
2022/05/08 08:35:39;;;;;;;;;;;22.70;51.00;;;;;;5074384;28;20403;-55
2022/05/08 08:38:08;;;;;;;;;;;22.70;51.00;;;;;;5074243;28;19964;-54
2022/05/08 08:40:42;;;;;;;;;;;22.70;51.00;;;;;;5074108;28;19924;-53
2022/05/08 08:43:09;;;;;;;;;;;22.70;51.00;;;;;;5073756;28;20447;-54
2022/05/08 08:48:28;;;;;;;;;;;22.70;51.00;;;;;;5076619;28;19924;-54
2022/05/08 08:50:56;;;;;;;;;;;22.70;51.00;;;;;;5073741;28;20410;-50
2022/05/08 08:53:23;;;;;;;;;;;22.70;51.00;;;;;;5074095;28;20521;-50
2022/05/08 08:55:51;;;;;;;;;;;22.70;51.00;;;;;;5092388;28;19924;-52
2022/05/08 08:58:18;;;;;;;;;;;22.70;51.00;;;;;;5077655;28;20395;-51
2022/05/08 09:00:48;;;;;;;;;;;22.70;51.00;;;;;;5073743;28;20403;-53
2022/05/08 09:03:25;;;;;;;;;;;22.70;51.00;;;;;;5073495;28;20316;-51
2022/05/08 09:05:54;;;;;;;;;;;22.70;51.00;;;;;;5073658;28;19936;-48
2022/05/08 09:08:28;;;;;;;;;;;22.70;50.90;;;;;;5072408;28;20331;-53
2022/05/08 09:10:58;;;;;;;;;;;22.70;50.80;;;;;;5053655;28;19979;-53
2022/05/08 09:13:26;;;;;;;;;;;22.70;50.80;;;;;;5054196;28;20343;-55
2022/05/08 09:16:03;;;;;;;;;;;22.70;50.80;;;;;;5054087;28;19938;-49
2022/05/08 09:18:42;;;;;;;;;;;22.70;50.80;;;;;;5068735;28;20015;-51
2022/05/08 09:24:06;;;;;;;;;;;22.70;50.90;;;;;;5053611;28;19932;-50
2022/05/08 09:26:33;;;;;;;;;;;22.70;50.90;;;;;;5060740;28;19925;-49
2022/05/08 09:29:00;;;;;;;;;;;22.70;51.00;;;;;;5072087;28;20284;-51
2022/05/08 09:31:36;;;;;;;;;;;22.70;51.00;;;;;;5072682;28;19931;-51
2022/05/08 09:34:03;;;;;;;;;;;22.70;51.00;;;;;;5073096;28;19924;-51
2022/05/08 09:36:30;;;;;;;;;;;22.70;51.00;;;;;;5073498;28;19946;-49
2022/05/08 09:38:58;;;;;;;;;;;22.70;51.00;;;;;;5073491;28;19924;-50
2022/05/08 09:41:38;;;;;;;;;;;22.70;51.00;;;;;;5072776;28;19924;-48
2022/05/08 09:44:12;;;;;;;;;;;22.70;50.90;;;;;;5073443;28;19982;-52
2022/05/08 09:46:45;;;;;;;;;;;22.70;50.90;;;;;;5056038;28;19925;-52
2022/05/08 09:49:13;;;;;;;;;;;22.70;50.90;;;;;;5053496;28;19932;-49
2022/05/08 09:51:42;;;;;;;;;;;22.80;50.90;;;;;;5083650;28;19931;-47
2022/05/08 09:54:09;;;;;;;;;;;22.80;51.50;;;;;;5093390;28;19936;-53
2022/05/08 09:56:36;;;;;;;;;;;22.80;50.90;;;;;;5091500;28;20276;-51
2022/05/08 09:59:07;;;;;;;;;;;22.80;50.90;;;;;;5073175;28;19932;-48
2022/05/08 10:01:34;;;;;;;;;;;22.80;50.90;;;;;;5072046;28;19931;-49
2022/05/08 10:04:03;;;;;;;;;;;22.80;50.80;;;;;;5073157;28;20400;-49
2022/05/08 10:06:32;;;;;;;;;;;22.80;50.80;;;;;;5072632;28;19924;-53
2022/05/08 10:14:35;;;;;;;;;;;22.90;50.80;;;;;;5073475;28;20386;-47
2022/05/08 10:17:05;;;;;;;;;;;22.90;50.70;;;;;;5072723;28;19974;-47
2022/05/08 10:19:32;;;;;;;;;;;23.00;50.70;;;;;;5072187;28;19932;-48
2022/05/08 10:22:06;;;;;;;;;;;23.00;50.60;;;;;;5072617;28;19928;-48
2022/05/08 10:24:35;;;;;;;;;;;22.90;50.50;;;;;;5071972;28;19924;-50
2022/05/08 10:27:23;;;;;;;;;;;23.00;50.60;;;;;;5071932;28;20215;-50
2022/05/08 10:29:50;;;;;;;;;;;22.90;50.50;;;;;;5072061;28;19970;-47
2022/05/08 10:32:33;;;;;;;;;;;23.00;50.50;;;;;;5072777;28;19924;-50
2022/05/08 10:35:03;;;;;;;;;;;23.00;50.50;;;;;;5072207;28;19975;-51
2022/05/08 10:37:31;;;;;;;;;;;23.00;50.40;;;;;;5072338;28;19978;-48
2022/05/08 10:39:58;;;;;;;;;;;23.00;50.40;;;;;;5072564;28;19948;-47
2022/05/08 10:42:29;;;;;;;;;;;23.10;50.50;;;;;;5072528;28;19925;-51
2022/05/08 10:44:58;;;;;;;;;;;23.00;50.40;;;;;;5070085;28;20003;-48
2022/05/08 10:47:34;;;;;;;;;;;23.10;50.50;;;;;;5076935;28;19930;-51
2022/05/08 10:50:05;;;;;;;;;;;23.10;50.50;;;;;;5091926;28;19931;-47
2022/05/08 10:52:33;;;;;;;;;;;23.10;50.40;;;;;;5092670;28;19928;-48
2022/05/08 10:55:02;;;;;;;;;;;23.10;50.40;;;;;;5092354;28;19924;-47
2022/05/08 10:57:34;;;;;;;;;;;23.10;50.40;;;;;;5083420;28;19924;-47
2022/05/08 11:00:08;;;;;;;;;;;23.10;50.40;;;;;;5072704;28;20350;-49
2022/05/08 11:02:55;;;;;;;;;;;23.10;50.40;;;;;;5072514;28;20347;-48
2022/05/08 11:05:22;;;;;;;;;;;23.10;50.40;;;;;;5072526;28;19925;-49
2022/05/08 11:07:58;;;;;;;;;;;23.10;50.50;;;;;;5071891;28;19925;-48
2022/05/08 11:10:27;;;;;;;;;;;23.10;50.50;;;;;;5069365;28;19925;-49
2022/05/08 11:12:59;;;;;;;;;;;23.10;50.50;;;;;;5072333;28;20299;-46
2022/05/08 11:15:29;;;;;;;;;;;23.10;50.40;;;;;;5071998;28;19924;-48
2022/05/08 11:18:16;;;;;;;;;;;23.10;50.50;;;;;;5072696;28;19925;-47
2022/05/08 11:20:43;;;;;;;;;;;23.00;50.40;;;;;;5058333;28;19928;-49
2022/05/08 11:23:14;;;;;;;;;;;23.10;50.50;;;;;;5071982;28;19932;-47
2022/05/08 11:25:44;;;;;;;;;;;23.00;50.40;;;;;;5071669;28;19928;-48
2022/05/08 11:28:13;;;;;;;;;;;23.10;50.50;;;;;;5076044;28;19925;-47
2022/05/08 11:30:46;;;;;;;;;;;23.10;50.50;;;;;;5075433;28;19928;-51
2022/05/08 11:36:06;;;;;;;;;;;23.10;50.50;;;;;;5075626;28;19931;-49
2022/05/08 11:38:42;;;;;;;;;;;23.10;50.40;;;;;;5075840;28;19928;-47
2022/05/08 11:41:29;;;;;;;;;;;23.10;50.40;;;;;;5075764;28;19925;-48
2022/05/08 11:43:57;;;;;;;;;;;23.10;50.40;;;;;;5083652;28;19924;-53
2022/05/08 11:46:45;;;;;;;;;;;23.10;50.40;;;;;;5096007;28;19986;-53
2022/05/08 11:49:19;;;;;;;;;;;23.10;50.50;;;;;;5096114;28;20394;-54
2022/05/08 11:51:50;;;;;;;;;;;23.10;50.50;;;;;;5095519;28;19947;-54
2022/05/08 11:54:19;;;;;;;;;;;23.10;50.60;;;;;;5094969;28;19947;-52
2022/05/08 11:56:47;;;;;;;;;;;23.00;51.10;;;;;;5092582;28;19932;-54
2022/05/08 11:59:21;;;;;;;;;;;23.00;50.60;;;;;;5075195;28;19930;-51
2022/05/08 12:01:49;;;;;;;;;;;22.90;50.60;;;;;;5075980;28;19924;-53
2022/05/08 12:04:24;;;;;;;;;;;22.90;50.70;;;;;;5075584;28;19931;-54
2022/05/08 12:06:59;;;;;;;;;;;23.00;50.80;;;;;;5057882;28;19932;-53
2022/05/08 12:09:27;;;;;;;;;;;23.00;50.90;;;;;;5064168;28;19925;-52
2022/05/08 12:11:54;;;;;;;;;;;22.90;50.90;;;;;;5074920;28;19925;-49
2022/05/08 12:14:31;;;;;;;;;;;22.90;50.90;;;;;;5074838;28;20388;-53
2022/05/08 12:17:00;;;;;;;;;;;23.00;51.00;;;;;;5072640;28;19924;-55
2022/05/08 12:19:27;;;;;;;;;;;23.00;51.00;;;;;;5074827;28;19924;-53
2022/05/08 12:21:54;;;;;;;;;;;23.00;51.00;;;;;;5074992;28;19974;-48
2022/05/08 12:24:22;;;;;;;;;;;23.00;50.90;;;;;;5074533;28;20011;-53
2022/05/08 12:26:50;;;;;;;;;;;23.00;51.00;;;;;;5074877;28;20023;-53
2022/05/08 12:29:21;;;;;;;;;;;23.00;50.90;;;;;;5074798;28;19924;-55
2022/05/08 12:31:50;;;;;;;;;;;23.00;50.90;;;;;;5069625;28;19970;-48
2022/05/08 12:34:20;;;;;;;;;;;23.00;50.90;;;;;;5054818;28;19925;-47
2022/05/08 12:36:50;;;;;;;;;;;23.10;51.00;;;;;;5054917;28;19931;-47
2022/05/08 12:39:19;;;;;;;;;;;23.10;51.00;;;;;;5067265;28;19931;-47
2022/05/08 12:41:46;;;;;;;;;;;23.10;51.00;;;;;;5095327;28;19932;-53
2022/05/08 12:44:13;;;;;;;;;;;23.10;51.00;;;;;;5095247;28;19927;-53
2022/05/08 12:46:40;;;;;;;;;;;23.10;51.00;;;;;;5078005;28;20292;-52
2022/05/08 12:49:10;;;;;;;;;;;23.10;51.00;;;;;;5074980;28;19924;-48
2022/05/08 12:51:37;;;;;;;;;;;23.10;51.00;;;;;;5074553;28;20022;-53
2022/05/08 12:54:04;;;;;;;;;;;23.10;51.10;;;;;;5074670;28;20387;-53
2022/05/08 12:56:32;;;;;;;;;;;23.10;51.00;;;;;;5090640;28;19954;-47
2022/05/08 13:01:45;;;;;;;;;;;23.10;51.10;;;;;;5073103;28;20456;-48
2022/05/08 13:04:12;;;;;;;;;;;23.10;51.10;;;;;;5074580;28;19925;-46
2022/05/08 13:06:39;;;;;;;;;;;23.10;51.10;;;;;;5074061;28;19924;-49
2022/05/08 13:09:06;;;;;;;;;;;23.10;51.10;;;;;;5078869;28;19925;-52
2022/05/08 13:11:36;;;;;;;;;;;23.10;51.10;;;;;;5061348;28;19935;-48
2022/05/08 13:14:04;;;;;;;;;;;23.10;51.10;;;;;;5072883;28;19929;-48
2022/05/08 13:16:31;;;;;;;;;;;23.10;51.10;;;;;;5073966;28;19932;-48
2022/05/08 13:18:58;;;;;;;;;;;23.00;51.00;;;;;;5074441;28;19975;-54
2022/05/08 13:21:26;;;;;;;;;;;23.10;51.20;;;;;;5077558;28;20019;-51
2022/05/08 13:23:53;;;;;;;;;;;23.10;51.20;;;;;;5094023;28;19924;-47
2022/05/08 13:26:20;;;;;;;;;;;23.00;51.10;;;;;;5094538;28;19924;-48
2022/05/08 13:28:47;;;;;;;;;;;23.00;51.20;;;;;;5083106;28;20366;-48
2022/05/08 13:31:14;;;;;;;;;;;23.00;51.20;;;;;;5073775;28;19925;-47
2022/05/08 13:33:41;;;;;;;;;;;23.00;51.20;;;;;;5073433;28;19983;-51
2022/05/08 13:36:09;;;;;;;;;;;23.00;51.30;;;;;;5081457;28;19924;-47
2022/05/08 13:38:36;;;;;;;;;;;23.00;51.30;;;;;;5083884;28;19987;-47
2022/05/08 13:41:03;;;;;;;;;;;23.00;51.30;;;;;;5073892;28;20308;-51
2022/05/08 13:43:30;;;;;;;;;;;23.00;51.30;;;;;;5073108;28;19924;-48
2022/05/08 13:45:58;;;;;;;;;;;22.90;51.30;;;;;;5073573;28;19973;-47
2022/05/08 13:48:25;;;;;;;;;;;22.90;51.30;;;;;;5073536;28;19929;-49
2022/05/08 13:50:52;;;;;;;;;;;22.90;51.40;;;;;;5072706;28;19924;-49
2022/05/08 13:53:20;;;;;;;;;;;22.90;51.40;;;;;;5073410;28;19931;-47
2022/05/08 13:55:49;;;;;;;;;;;22.90;51.50;;;;;;5073033;28;19970;-47
2022/05/08 13:58:17;;;;;;;;;;;22.90;51.50;;;;;;5073253;28;19925;-49
2022/05/08 14:00:50;;;;;;;;;;;22.80;51.50;;;;;;5073290;28;19928;-48
2022/05/08 14:03:19;;;;;;;;;;;22.80;51.50;;;;;;5073494;28;19930;-48
2022/05/08 14:05:47;;;;;;;;;;;22.80;51.60;;;;;;5073542;28;19931;-50
2022/05/08 14:08:15;;;;;;;;;;;22.80;52.20;;;;;;5073218;28;19925;-53
2022/05/08 14:10:42;;;;;;;;;;;22.80;51.70;;;;;;5073232;28;19932;-48
2022/05/08 14:13:09;;;;;;;;;;;22.80;51.70;;;;;;5072976;28;19924;-49
2022/05/08 14:15:37;;;;;;;;;;;22.80;51.70;;;;;;5072871;28;19925;-48
2022/05/08 14:18:05;;;;;;;;;;;22.80;51.70;;;;;;5073139;28;20143;-49
2022/05/08 14:20:32;;;;;;;;;;;22.80;51.70;;;;;;5072843;28;19971;-46
2022/05/08 14:22:59;;;;;;;;;;;22.80;51.70;;;;;;5072647;28;20418;-47
2022/05/08 14:25:27;;;;;;;;;;;22.80;51.70;;;;;;5073014;28;19932;-50
2022/05/08 14:27:54;;;;;;;;;;;22.80;51.70;;;;;;5072958;28;19929;-50
2022/05/08 14:30:21;;;;;;;;;;;22.80;51.70;;;;;;5072812;28;19932;-48
2022/05/08 14:38:19;;;;;;;;;;;22.80;51.70;;;;;;5093329;28;19947;-49
2022/05/08 14:40:50;;;;;;;;;;;22.80;51.70;;;;;;5093466;28;20346;-50
2022/05/08 14:43:17;;;;;;;;;;;22.80;51.70;;;;;;5093005;28;19931;-54
2022/05/08 14:45:44;;;;;;;;;;;22.80;51.70;;;;;;5092695;28;19928;-47
2022/05/08 14:48:11;;;;;;;;;;;22.80;51.60;;;;;;5093156;28;19924;-48
2022/05/08 14:50:39;;;;;;;;;;;22.80;51.60;;;;;;5092641;28;19947;-52
2022/05/08 14:53:10;;;;;;;;;;;22.80;51.60;;;;;;5089168;28;19925;-49